Latest Weather Observations for Mount Crawford

IDS60901

Issued at 1:51 pm CST Monday 22 July 2024 (issued every 10 minutes, with the page automatically refreshed every 10 minutes)

About weather observations | Map of Adelaide area stations | Latest observations for Adelaide area | Other Formats
Station Details ID: 023878 Name: MOUNT CRAWFORD AWS Lat: -34.73 Lon: 138.93 Height: 525.0 m
Data from the previous 72 hours. | See also: Recent months at Mount Crawford
Date/Time
CST
Temp
°C
App
Temp
°C
Dew
Point
°C
Rel
Hum
%
Delta-T
°C
Wind Press
QNH
hPa
Press
MSL
hPa
Rain since
9am
mm
Dir  Spd
km/h
Gust
km/h
Spd
kts
Gust
kts
22/01:30pm 12.2 5.9 7.5 73 2.3 NW 30 44 16 24 1022.5 1023.0 0.0
22/01:00pm 11.7 6.1 7.2 74 2.2 NW 26 37 14 20 1023.0 1023.6 0.0
22/12:30pm 11.3 5.8 7.4 77 1.9 NW 26 39 14 21 1023.5 1024.0 0.0
22/12:00pm 11.6 6.5 7.7 77 1.9 NW 24 37 13 20 1023.9 1024.4 0.0
22/11:30am 10.4 5.1 6.7 78 1.8 NW 24 37 13 20 1024.2 1024.8 0.0
22/11:00am 10.1 4.6 6.1 76 1.9 NW 24 39 13 21 1024.3 1024.9 0.0
22/10:30am 9.3 4.2 5.9 79 1.6 NNW 22 32 12 17 1024.4 1025.0 0.0
22/10:00am 8.6 4.4 5.7 82 1.4 NNW 17 24 9 13 1024.4 1025.0 0.0
22/09:30am 8.1 3.3 4.9 80 1.5 NW 19 28 10 15 1024.1 1024.6 0.0
22/09:00am 7.6 2.8 4.6 81 1.3 NNW 19 28 10 15 1023.9 1024.4 4.4
22/08:30am 7.4 3.3 4.5 82 1.3 NW 15 24 8 13 1023.8 1024.3 4.4
22/08:00am 7.3 2.5 4.4 82 1.3 NW 19 28 10 15 1023.5 1024.0 4.4
22/07:30am 7.4 2.6 4.5 82 1.3 NW 19 28 10 15 1023.0 1023.6 4.4
22/07:00am 7.5 2.7 4.6 82 1.3 WNW 19 26 10 14 1022.8 1023.4 4.4
22/06:30am 7.4 2.4 4.5 82 1.3 WNW 20 28 11 15 1022.7 1023.3 4.4
22/06:00am 7.3 2.3 4.4 82 1.3 WNW 20 30 11 16 1022.5 1023.0 4.4
22/05:30am 7.0 1.9 4.3 83 1.2 WNW 20 33 11 18 1022.1 1022.6 4.4
22/05:00am 7.0 2.1 4.3 83 1.2 NW 19 24 10 13 1021.9 1022.4 4.4
22/04:30am 7.0 2.0 4.7 85 1.0 WNW 20 30 11 16 1021.8 1022.3 4.4
22/04:00am 7.6 2.2 4.7 82 1.3 WNW 22 33 12 18 1021.7 1022.2 4.4
22/03:30am 7.9 1.8 4.8 81 1.4 WNW 26 33 14 18 1021.6 1022.1 4.4
22/03:00am 8.1 2.0 4.7 79 1.5 WNW 26 33 14 18 1021.6 1022.1 4.4
22/02:30am 8.5 1.7 4.9 78 1.6 WNW 30 39 16 21 1021.7 1022.2 4.4
22/02:00am 8.3 1.5 5.1 80 1.5 WNW 30 41 16 22 1021.4 1021.9 4.4
22/01:30am 8.4 1.1 5.3 81 1.4 WNW 33 44 18 24 1021.3 1021.8 4.4
22/01:00am 8.7 1.1 5.6 81 1.4 WNW 35 46 19 25 1021.2 1021.7 4.4
22/12:30am 8.7 1.1 5.6 81 1.4 WNW 35 48 19 26 1021.2 1021.7 4.4
22/12:00am 8.6 1.4 5.9 83 1.3 WNW 33 48 18 26 1021.4 1021.9 4.4
 
Date/Time
CST
Temp
°C
App
Temp
°C
Dew
Point
°C
Rel
Hum
%
Delta-T
°C
Wind Press
QNH
hPa
Press
MSL
hPa
Rain since
9am
mm
Dir  Spd
km/h
Gust
km/h
Spd
kts
Gust
kts
21/11:49pm 8.9 1.9 6.0 82 1.4 WNW 32 52 17 28 1021.2 1021.7 4.4
21/11:30pm 8.8 1.3 6.3 84 1.2 WNW 35 46 19 25 1021.4 1021.9 4.4
21/11:00pm 8.8 2.3 6.4 85 1.1 WNW 30 43 16 23 1021.6 1022.1 4.4
21/10:30pm 8.9 2.4 6.3 84 1.2 WNW 30 39 16 21 1021.6 1022.1 4.4
21/10:00pm 8.8 3.5 6.6 86 1.1 WNW 24 35 13 19 1021.7 1022.2 4.4
21/09:30pm 8.7 3.4 6.7 87 1.0 NW 24 30 13 16 1021.8 1022.3 4.4
21/09:00pm 8.7 3.4 6.7 87 1.0 NW 24 35 13 19 1021.7 1022.2 4.4
21/08:30pm 8.9 4.1 7.2 89 0.8 NW 22 30 12 16 1021.6 1022.1 4.4
21/08:00pm 8.8 4.6 8.2 96 0.3 NW 20 30 11 16 1021.6 1022.1 4.4
21/07:30pm 9.1 4.7 8.8 98 0.2 NW 22 32 12 17 1021.5 1022.0 4.4
21/07:00pm 9.1 5.0 8.8 98 0.2 WNW 20 28 11 15 1021.5 1022.0 4.4
21/06:30pm 9.4 5.4 9.1 98 0.2 WNW 20 30 11 16 1021.3 1021.8 4.4
21/06:00pm 9.5 4.8 9.2 98 0.2 NW 24 33 13 18 1020.8 1021.3 2.4
21/05:30pm 9.7 5.8 9.4 98 0.2 NW 20 30 11 16 1020.5 1021.0 1.4
21/05:00pm 9.8 5.2 9.5 98 0.2 WNW 24 33 13 18 1020.7 1021.2 1.0
21/04:30pm 9.7 5.0 9.4 98 0.2 NW 24 35 13 19 1020.5 1021.0 1.0
21/04:00pm 9.9 4.5 9.6 98 0.2 WNW 28 39 15 21 1020.3 1020.8 1.0
21/03:30pm 9.7 3.9 9.4 98 0.2 WNW 30 44 16 24 1020.0 1020.5 1.0
21/03:00pm 9.5 4.0 9.2 98 0.2 WNW 28 41 15 22 1020.1 1020.6 1.0
21/02:30pm 9.6 4.5 9.3 98 0.2 WNW 26 37 14 20 1019.9 1020.4 0.4
21/02:00pm 9.4 3.9 9.1 98 0.2 WNW 28 43 15 23 1019.9 1020.4 0.4
21/01:30pm 9.2 4.0 8.9 98 0.2 WNW 26 39 14 21 1020.0 1020.5 0.4
21/01:00pm 9.2 3.6 8.9 98 0.2 WNW 28 43 15 23 1020.2 1020.7 0.4
21/12:30pm 9.0 3.4 8.7 98 0.1 WNW 28 43 15 23 1020.6 1021.1 0.4
21/12:00pm 8.8 2.4 8.5 98 0.1 WNW 32 43 17 23 1020.8 1021.3 0.2
21/11:30am 8.8 3.1 8.5 98 0.1 WNW 28 46 15 25 1020.9 1021.5 0.0
21/11:05am 8.6 2.9 8.3 98 0.1 WNW 28 46 15 25 1021.3 1021.8 0.0
21/11:00am 8.6 2.1 8.3 98 0.1 WNW 32 46 17 25 1021.2 1021.7 0.0
21/10:42am 8.5 2.4 8.2 98 0.1 WNW 30 48 16 26 1021.2 1021.7 0.0
21/10:30am 8.4 1.7 8.1 98 0.1 WNW 33 48 18 26 1021.2 1021.7 0.0
21/10:00am 8.2 1.6 7.9 98 0.1 WNW 32 46 17 25 1021.0 1021.6 0.0
21/09:30am 8.1 1.9 7.8 98 0.1 NW 30 44 16 24 1021.0 1021.6 0.0
21/09:00am 8.1 1.9 7.8 98 0.1 WNW 30 43 16 23 1020.6 1021.1 5.2
21/08:30am 8.2 2.0 7.9 98 0.1 WNW 30 43 16 23 1020.5 1021.0 5.2
21/08:00am 8.2 2.8 7.9 98 0.1 WNW 26 37 14 20 1020.4 1020.9 5.2
21/07:30am 8.3 2.5 8.0 98 0.1 WNW 28 41 15 22 1020.1 1020.6 5.2
21/07:00am 8.2 2.4 7.9 98 0.1 WNW 28 43 15 23 1020.1 1020.6 5.0
21/06:30am 8.2 2.8 7.9 98 0.1 WNW 26 35 14 19 1019.7 1020.2 5.0
21/06:06am 8.2 2.4 7.9 98 0.1 WNW 28 46 15 25 1019.3 1019.7 5.0
21/06:00am 8.1 1.9 7.8 98 0.1 WNW 30 41 16 22 1019.4 1019.9 5.0
21/05:30am 8.0 2.1 7.7 98 0.1 WNW 28 39 15 21 1019.2 1019.6 5.0
21/05:00am 8.1 1.9 7.8 98 0.1 WNW 30 41 16 22 1018.9 1019.4 5.0
21/04:30am 8.2 2.0 7.9 98 0.1 WNW 30 43 16 23 1018.8 1019.3 5.0
21/04:00am 8.3 2.5 8.0 98 0.1 WNW 28 43 15 23 1018.9 1019.4 5.0
21/03:30am 8.4 2.3 8.1 98 0.1 WNW 30 43 16 23 1019.0 1019.5 5.0
21/03:00am 8.3 1.6 8.0 98 0.1 WNW 33 43 18 23 1019.2 1019.6 5.0
21/02:30am 8.2 2.4 7.9 98 0.1 WNW 28 50 15 27 1019.5 1020.0 5.0
21/02:02am 8.5 2.4 8.2 98 0.1 WNW 30 48 16 26 1019.5 1020.0 5.0
21/02:00am 8.5 2.8 8.2 98 0.1 WNW 28 43 15 23 1019.5 1020.0 5.0
21/01:56am 8.4 2.3 8.1 98 0.1 WNW 30 48 16 26 1019.6 1020.1 5.0
21/01:30am 8.4 2.6 8.1 98 0.1 WNW 28 39 15 21 1019.5 1020.0 5.0
21/01:00am 8.5 2.0 8.2 98 0.1 WNW 32 48 17 26 1019.4 1019.9 5.0
21/12:30am 8.2 2.0 7.9 98 0.1 WNW 30 41 16 22 1019.6 1020.1 5.0
21/12:00am 8.2 2.0 7.9 98 0.1 WNW 30 39 16 21 1019.7 1020.2 4.8
 
Date/Time
CST
Temp
°C
App
Temp
°C
Dew
Point
°C
Rel
Hum
%
Delta-T
°C
Wind Press
QNH
hPa
Press
MSL
hPa
Rain since
9am
mm
Dir  Spd
km/h
Gust
km/h
Spd
kts
Gust
kts
20/11:30pm 8.2 2.4 7.9 98 0.1 WNW 28 39 15 21 1019.7 1020.2 4.8
20/11:00pm 8.2 1.4 7.9 98 0.1 WNW 33 46 18 25 1019.7 1020.2 4.8
20/10:30pm 8.1 1.9 7.8 98 0.1 WNW 30 39 16 21 1019.7 1020.2 4.8
20/10:00pm 8.1 1.9 7.8 98 0.1 WNW 30 41 16 22 1019.6 1020.1 4.8
20/09:30pm 8.3 2.5 8.0 98 0.1 WNW 28 39 15 21 1019.4 1019.9 4.8
20/09:00pm 8.2 2.8 7.9 98 0.1 WNW 26 32 14 17 1019.0 1019.5 4.8
20/08:30pm 8.3 2.9 8.0 98 0.1 WNW 26 33 14 18 1019.0 1019.5 4.8
20/08:00pm 8.3 2.9 7.9 97 0.2 W 26 33 14 18 1018.7 1019.2 4.8
20/07:30pm 8.1 3.4 7.7 97 0.2 W 22 35 12 19 1018.4 1018.9 4.8
20/07:00pm 8.0 3.8 7.4 96 0.3 W 19 28 10 15 1018.1 1018.6 4.0
20/06:35pm 8.1 2.1 7.0 93 0.5 W 28 46 15 25 1017.7 1018.1 3.2
20/06:30pm 8.2 1.8 7.1 93 0.5 W 30 44 16 24 1017.7 1018.1 3.2
20/06:00pm 8.6 2.8 6.1 84 1.2 W 26 35 14 19 1017.5 1017.9 3.0
20/05:30pm 8.8 2.4 5.2 78 1.7 W 28 46 15 25 1016.9 1017.4 3.0
20/05:26pm 8.8 2.4 5.4 79 1.6 W 28 46 15 25 1016.9 1017.4 3.0
20/05:00pm 9.4 2.5 6.3 81 1.5 W 32 44 17 24 1016.6 1017.1 3.0
20/04:37pm 9.2 2.7 6.6 84 1.2 W 30 48 16 26 1016.5 1017.0 3.0
20/04:30pm 9.5 2.5 6.9 84 1.3 W 33 44 18 24 1016.3 1016.8 3.0
20/04:00pm 8.8 2.6 7.7 93 0.5 W 30 44 16 24 1016.2 1016.7 3.0
20/03:30pm 9.0 2.1 7.3 89 0.8 W 33 54 18 29 1015.8 1016.2 3.0
20/03:21pm 9.0 2.2 7.0 87 1.0 W 32 54 17 29 1015.5 1015.9 3.0
20/03:00pm 9.3 2.7 7.7 90 0.8 W 32 44 17 24 1015.3 1015.7 3.0
20/02:30pm 8.8 1.9 7.1 89 0.8 W 33 54 18 29 1014.9 1015.4 3.0
20/02:00pm 9.4 2.6 7.0 85 1.2 W 32 54 17 29 1014.6 1015.1 3.0
20/01:38pm 9.2 3.3 7.6 90 0.8 W 28 46 15 25 1014.6 1015.1 3.0
20/01:30pm 8.8 2.9 7.7 93 0.5 W 28 43 15 23 1014.7 1015.2 3.0
20/01:00pm 9.4 3.1 7.2 86 1.1 W 30 54 16 29 1014.4 1014.8 3.0
20/12:30pm 7.8 0.4 6.7 93 0.5 W 35 59 19 32 1014.6 1015.1 3.0
20/12:00pm 8.8 1.1 7.1 89 0.8 W 37 59 20 32 1014.7 1015.2 2.8
20/11:41am 8.6 -0.3 6.7 88 0.9 W 43 70 23 38 1014.1 1014.5 2.8
20/11:30am 8.1 1.8 7.2 94 0.4 W 30 52 16 28 1014.6 1015.1 2.8
20/11:00am 7.3 0.5 6.7 96 0.3 W 32 50 17 27 1014.5 1015.0 2.2
20/10:30am 7.7 0.9 6.8 94 0.4 W 32 52 17 28 1014.4 1014.8 0.6
20/10:00am 7.3 0.5 6.7 96 0.3 W 32 50 17 27 1014.2 1014.6 0.4
20/09:30am 6.1 -1.6 5.5 96 0.3 W 35 57 19 31 1013.5 1013.9 0.4
20/09:01am 6.8 0.1 5.6 92 0.6 W 30 48 16 26 1012.7 1013.1 0.0
20/09:00am 6.8 0.5 5.6 92 0.6 W 28 43 15 23 1012.7 1013.1 20.8
20/08:30am 6.5 -1.7 4.8 89 0.8 W 37 61 20 33 1011.7 1012.1 20.8
20/08:00am 6.5 -1.8 4.3 86 1.0 W 37 57 20 31 1011.2 1011.5 20.6
20/07:30am 5.7 -2.5 5.0 95 0.3 W 37 56 20 30 1010.3 1010.7 20.6
20/07:00am 5.4 -4.0 4.7 95 0.3 W 43 70 23 38 1009.5 1009.8 20.6
20/06:33am 5.8 -2.7 5.1 95 0.3 W 39 59 21 32 1008.9 1009.3 19.2
20/06:30am 5.9 -2.6 5.0 94 0.4 W 39 54 21 29 1008.9 1009.3 18.8
20/06:00am 5.8 -3.7 4.9 94 0.4 W 44 67 24 36 1008.3 1008.7 18.2
20/05:30am 5.4 -4.0 4.5 94 0.4 W 43 63 23 34 1007.8 1008.1 18.0
20/05:00am 5.6 -6.4 3.6 87 0.9 W 56 82 30 44 1006.6 1007.0 17.4
20/04:30am 5.4 -5.3 4.7 95 0.3 W 50 72 27 39 1006.5 1006.9 17.2
20/04:00am 5.9 -5.8 3.6 85 1.0 W 54 74 29 40 1005.7 1006.0 16.2
20/03:30am 5.9 -5.8 3.4 84 1.1 W 54 76 29 41 1005.9 1006.2 16.2
20/03:00am 5.9 -5.4 3.6 85 1.0 W 52 76 28 41 1005.8 1006.1 16.2
20/02:30am 6.1 -5.3 2.9 80 1.4 W 52 78 28 42 1005.0 1005.3 16.0
20/02:00am 5.9 -5.5 3.1 82 1.2 W 52 74 28 40 1004.8 1005.2 16.0
20/01:30am 5.8 -5.9 3.6 86 1.0 W 54 78 29 42 1004.5 1004.8 16.0
20/01:00am 5.6 -6.1 3.6 87 0.9 W 54 83 29 45 1003.9 1004.2 16.0
20/12:30am 6.1 -4.7 3.9 86 1.0 W 50 70 27 38 1003.5 1003.8 15.8
20/12:00am 5.9 -7.6 2.9 81 1.3 W 63 95 34 51 1002.8 1003.1 15.8
 
Date/Time
CST
Temp
°C
App
Temp
°C
Dew
Point
°C
Rel
Hum
%
Delta-T
°C
Wind Press
QNH
hPa
Press
MSL
hPa
Rain since
9am
mm
Dir  Spd
km/h
Gust
km/h
Spd
kts
Gust
kts
19/11:30pm 5.5 -9.2 2.7 82 1.2 W 69 106 37 57 1001.9 1002.2 15.8
19/11:00pm 6.8 -7.1 4.5 85 1.0 W 67 95 36 51 1001.0 1001.2 15.6
19/10:30pm 6.2 -5.4 5.6 96 0.3 W 56 85 30 46 1001.5 1001.7 15.6
19/10:00pm 6.7 -5.0 6.4 98 0.1 W 57 85 31 46 1001.2 1001.4 15.4
19/09:41pm 6.6 -5.1 6.3 98 0.1 W 57 93 31 50 1000.1 1000.4 15.0
19/09:30pm 7.2 -2.6 6.9 98 0.1 WNW 48 74 26 40 1000.4 1000.7 12.6
19/09:00pm 6.9 -2.2 6.6 98 0.1 WNW 44 69 24 37 1000.4 1000.7 12.4
19/08:30pm 6.9 -2.1 6.6 98 0.1 NW 43 69 23 37 1000.7 1001.0 12.0
19/08:00pm 6.9 -0.9 6.6 98 0.1 WNW 37 57 20 31 1001.5 1001.7 11.6
19/07:30pm 7.1 -0.7 6.8 98 0.1 WNW 37 56 20 30 1001.8 1002.1 11.4
19/07:00pm 7.0 -0.8 6.7 98 0.1 NW 37 61 20 33 1001.6 1001.9 10.6
19/06:30pm 6.7 -0.8 6.3 97 0.2 WNW 35 57 19 31 1001.7 1002.0 9.4
19/06:00pm 6.7 -2.5 6.3 97 0.2 NW 44 83 24 45 1001.4 1001.6 7.6
19/05:59pm 6.7 -2.3 6.3 97 0.2 NW 43 83 23 45 1001.1 1001.3 7.6
19/05:30pm 6.9 -1.5 5.7 92 0.6 NW 39 59 21 32 1001.0 1001.2 5.6
19/05:00pm 7.1 -3.1 5.3 88 0.8 NNW 48 76 26 41 1000.8 1001.1 5.4
19/04:30pm 7.1 -2.8 4.8 85 1.0 NNW 46 80 25 43 1000.6 1000.9 5.4
19/04:22pm 7.2 -2.7 4.9 85 1.0 NW 46 80 25 43 1000.5 1000.8 5.4
19/04:00pm 6.8 -2.2 4.8 87 0.9 NNW 41 61 22 33 1000.4 1000.7 5.4
19/03:30pm 6.6 -3.0 4.6 87 0.9 N 44 67 24 36 1000.3 1000.6 5.2
19/03:01pm 6.8 -1.8 4.5 85 1.0 N 39 67 21 36 1000.5 1000.8 4.8
19/03:00pm 6.8 -1.8 4.5 85 1.0 N 39 56 21 30 1000.5 1000.8 4.8
19/02:30pm 6.4 -2.9 4.9 90 0.7 N 43 61 23 33 1001.7 1002.0 4.6
19/02:13pm 6.4 -1.3 5.2 92 0.5 N 35 54 19 29 1002.0 1002.3 3.6
19/02:00pm 6.5 -1.3 5.0 90 0.7 NNW 35 52 19 28 1002.6 1002.9 3.0
19/01:53pm 7.0 0.6 5.3 89 0.8 NNW 28 48 15 26 1003.0 1003.2 2.6

Latest Capital City Observations: Canberra | Sydney | Melbourne | Brisbane | Adelaide | Perth | Hobart | Darwin

Other formats

Comma delimited format used in spreadsheet applications
http://www.bom.gov.au/fwo/IDS60901/IDS60901.94678.axf

JavaScript Object Notation format (JSON) in row-major order
http://www.bom.gov.au/fwo/IDS60901/IDS60901.94678.json

Data quality

Most of these data are generated automatically and are frequently updated. Quality checks on data are not normally performed. It is possible for incorrect values to appear. Refer to information at About Latest Weather Observations and please check the disclaimer before using these data.